City of Sunrise, Florida
Current Conditions -  °F | °C
As of 9:53 AM on Monday 24 Nov 2014 (Local Time) from KFXE Reporting Station
Scattered Clouds Scattered Clouds  
Wind Chill: 82°   Ceiling: Unl
Heat Index: 89°   Visibility: 10mi
Dew Point: 75°   Wind: 7mph
Humidity: 79%   Direction: 170°S
Pressure: 30.02"   Gusts: NA
Location:  26.1495°N, 80.2263°W
Report Text: KFXE 241453Z 17006KT 10SM SCT015 SCT040 28/24 A3002 RMK AO2 SLP168 T02780239 51013
Loading
Personal Weather Stations






























Interactive Weather Map New forecast layout! Learn more

10-Day Weather Forecast

Advertisements
Track Severe Weather on mobile